sensor_id;sensor_type;location;lat;lon;timestamp;temperature;humidity
21037;DHT22;10677;50.942;4.028;2023-04-30T00:02:17;10.00;99.90
21037;DHT22;10677;50.942;4.028;2023-04-30T00:04:42;10.00;99.90
21037;DHT22;10677;50.942;4.028;2023-04-30T00:07:08;9.90;99.90
21037;DHT22;10677;50.942;4.028;2023-04-30T00:09:34;9.90;99.90
21037;DHT22;10677;50.942;4.028;2023-04-30T00:11:59;9.90;99.90
21037;DHT22;10677;50.942;4.028;2023-04-30T00:14:25;9.90;99.90
21037;DHT22;10677;50.942;4.028;2023-04-30T00:16:51;9.90;99.90
21037;DHT22;10677;50.942;4.028;2023-04-30T00:19:16;9.90;99.90
21037;DHT22;10677;50.942;4.028;2023-04-30T00:21:42;9.90;99.90
21037;DHT22;10677;50.942;4.028;2023-04-30T00:24:07;9.90;99.90
21037;DHT22;10677;50.942;4.028;2023-04-30T00:26:33;9.90;99.90
21037;DHT22;10677;50.942;4.028;2023-04-30T00:28:58;9.80;99.90
21037;DHT22;10677;50.942;4.028;2023-04-30T00:31:24;9.80;99.90
21037;DHT22;10677;50.942;4.028;2023-04-30T00:33:50;9.80;99.90
21037;DHT22;10677;50.942;4.028;2023-04-30T00:36:16;9.70;99.90
21037;DHT22;10677;50.942;4.028;2023-04-30T00:38:42;9.70;99.90
21037;DHT22;10677;50.942;4.028;2023-04-30T00:41:07;9.70;99.90
21037;DHT22;10677;50.942;4.028;2023-04-30T00:43:33;9.80;99.90
21037;DHT22;10677;50.942;4.028;2023-04-30T00:45:59;9.90;99.90
21037;DHT22;10677;50.942;4.028;2023-04-30T00:48:25;9.90;99.90
21037;DHT22;10677;50.942;4.028;2023-04-30T00:50:52;9.90;99.90
21037;DHT22;10677;50.942;4.028;2023-04-30T00:53:19;9.80;99.90
21037;DHT22;10677;50.942;4.028;2023-04-30T00:55:44;9.80;99.90
21037;DHT22;10677;50.942;4.028;2023-04-30T00:58:11;9.80;99.90
21037;DHT22;10677;50.942;4.028;2023-04-30T01:00:36;9.80;99.90
21037;DHT22;10677;50.942;4.028;2023-04-30T01:03:03;9.80;99.90
21037;DHT22;10677;50.942;4.028;2023-04-30T01:05:28;9.70;99.90
21037;DHT22;10677;50.942;4.028;2023-04-30T01:07:55;9.70;99.90
21037;DHT22;10677;50.942;4.028;2023-04-30T01:10:26;9.60;99.90
21037;DHT22;10677;50.942;4.028;2023-04-30T01:13:02;9.60;99.90
21037;DHT22;10677;50.942;4.028;2023-04-30T01:15:41;9.50;99.90
21037;DHT22;10677;50.942;4.028;2023-04-30T01:18:20;9.40;99.90
21037;DHT22;10677;50.942;4.028;2023-04-30T01:20:49;9.30;99.90
21037;DHT22;10677;50.942;4.028;2023-04-30T01:29:13;9.00;99.90
21037;DHT22;10677;50.942;4.028;2023-04-30T01:31:42;8.90;99.90
21037;DHT22;10677;50.942;4.028;2023-04-30T01:34:08;9.00;99.90
21037;DHT22;10677;50.942;4.028;2023-04-30T01:42:19;9.00;99.90
21037;DHT22;10677;50.942;4.028;2023-04-30T01:47:38;8.90;99.90
21037;DHT22;10677;50.942;4.028;2023-04-30T01:50:38;8.90;99.90
21037;DHT22;10677;50.942;4.028;2023-04-30T01:53:09;8.80;99.90
21037;DHT22;10677;50.942;4.028;2023-04-30T01:55:47;8.80;99.90
21037;DHT22;10677;50.942;4.028;2023-04-30T01:58:15;8.80;99.90
21037;DHT22;10677;50.942;4.028;2023-04-30T02:00:41;8.90;99.90
21037;DHT22;10677;50.942;4.028;2023-04-30T02:03:07;8.90;99.90
21037;DHT22;10677;50.942;4.028;2023-04-30T02:05:33;8.90;99.90
21037;DHT22;10677;50.942;4.028;2023-04-30T02:07:58;8.80;99.90
21037;DHT22;10677;50.942;4.028;2023-04-30T02:10:25;8.90;99.90
21037;DHT22;10677;50.942;4.028;2023-04-30T02:12:51;8.90;99.90
21037;DHT22;10677;50.942;4.028;2023-04-30T02:15:18;8.90;99.90
21037;DHT22;10677;50.942;4.028;2023-04-30T02:17:44;9.00;99.90
21037;DHT22;10677;50.942;4.028;2023-04-30T02:20:10;9.00;99.90
21037;DHT22;10677;50.942;4.028;2023-04-30T02:22:36;9.00;99.90
21037;DHT22;10677;50.942;4.028;2023-04-30T02:25:02;9.10;99.90
21037;DHT22;10677;50.942;4.028;2023-04-30T02:27:29;9.00;99.90
21037;DHT22;10677;50.942;4.028;2023-04-30T02:29:55;8.90;99.90
21037;DHT22;10677;50.942;4.028;2023-04-30T02:32:21;8.80;99.90
21037;DHT22;10677;50.942;4.028;2023-04-30T02:34:47;8.80;99.90
21037;DHT22;10677;50.942;4.028;2023-04-30T02:37:12;8.70;99.90
21037;DHT22;10677;50.942;4.028;2023-04-30T02:39:38;8.80;99.90
21037;DHT22;10677;50.942;4.028;2023-04-30T02:42:04;8.80;99.90
21037;DHT22;10677;50.942;4.028;2023-04-30T02:44:31;8.80;99.90
21037;DHT22;10677;50.942;4.028;2023-04-30T02:46:57;8.80;99.90
21037;DHT22;10677;50.942;4.028;2023-04-30T02:49:22;8.80;99.90
21037;DHT22;10677;50.942;4.028;2023-04-30T02:51:48;8.90;99.90
21037;DHT22;10677;50.942;4.028;2023-04-30T02:54:13;8.80;99.90
21037;DHT22;10677;50.942;4.028;2023-04-30T02:56:39;8.70;99.90
21037;DHT22;10677;50.942;4.028;2023-04-30T02:59:06;8.70;99.90
21037;DHT22;10677;50.942;4.028;2023-04-30T03:01:31;8.60;99.90
21037;DHT22;10677;50.942;4.028;2023-04-30T03:03:57;8.60;99.90
21037;DHT22;10677;50.942;4.028;2023-04-30T03:06:23;8.50;99.90
21037;DHT22;10677;50.942;4.028;2023-04-30T03:08:49;8.40;99.90
21037;DHT22;10677;50.942;4.028;2023-04-30T03:11:15;8.40;99.90
21037;DHT22;10677;50.942;4.028;2023-04-30T03:13:42;8.30;99.90
21037;DHT22;10677;50.942;4.028;2023-04-30T03:16:07;8.40;99.90
21037;DHT22;10677;50.942;4.028;2023-04-30T03:18:33;8.40;99.90
21037;DHT22;10677;50.942;4.028;2023-04-30T03:20:59;8.30;99.90
21037;DHT22;10677;50.942;4.028;2023-04-30T03:23:26;8.20;99.90
21037;DHT22;10677;50.942;4.028;2023-04-30T03:25:52;8.20;99.90
21037;DHT22;10677;50.942;4.028;2023-04-30T03:28:18;8.20;99.90
21037;DHT22;10677;50.942;4.028;2023-04-30T03:30:43;8.30;99.90
21037;DHT22;10677;50.942;4.028;2023-04-30T03:33:09;8.40;99.90
21037;DHT22;10677;50.942;4.028;2023-04-30T03:35:35;8.60;99.90
21037;DHT22;10677;50.942;4.028;2023-04-30T03:38:01;8.70;99.90
21037;DHT22;10677;50.942;4.028;2023-04-30T03:40:26;8.70;99.90
21037;DHT22;10677;50.942;4.028;2023-04-30T03:42:52;8.60;99.90
21037;DHT22;10677;50.942;4.028;2023-04-30T03:45:18;8.40;99.90
21037;DHT22;10677;50.942;4.028;2023-04-30T03:47:44;8.40;99.90
21037;DHT22;10677;50.942;4.028;2023-04-30T03:50:10;8.20;99.90
21037;DHT22;10677;50.942;4.028;2023-04-30T03:52:36;8.20;99.90
21037;DHT22;10677;50.942;4.028;2023-04-30T03:55:05;8.20;99.90
21037;DHT22;10677;50.942;4.028;2023-04-30T03:57:32;8.10;99.90
21037;DHT22;10677;50.942;4.028;2023-04-30T03:59:57;8.00;99.90
21037;DHT22;10677;50.942;4.028;2023-04-30T04:02:23;8.00;99.90
21037;DHT22;10677;50.942;4.028;2023-04-30T04:04:51;8.10;99.90
21037;DHT22;10677;50.942;4.028;2023-04-30T04:07:17;8.20;99.90
21037;DHT22;10677;50.942;4.028;2023-04-30T04:09:43;8.20;99.90
21037;DHT22;10677;50.942;4.028;2023-04-30T04:12:09;8.20;99.90
21037;DHT22;10677;50.942;4.028;2023-04-30T04:14:35;8.10;99.90
21037;DHT22;10677;50.942;4.028;2023-04-30T04:17:00;8.10;99.90
21037;DHT22;10677;50.942;4.028;2023-04-30T04:19:27;8.20;99.90
21037;DHT22;10677;50.942;4.028;2023-04-30T04:21:52;8.20;99.90
21037;DHT22;10677;50.942;4.028;2023-04-30T04:24:18;8.20;99.90
21037;DHT22;10677;50.942;4.028;2023-04-30T04:26:44;8.10;99.90
21037;DHT22;10677;50.942;4.028;2023-04-30T04:29:10;8.10;99.90
21037;DHT22;10677;50.942;4.028;2023-04-30T04:31:37;8.10;99.90
21037;DHT22;10677;50.942;4.028;2023-04-30T04:34:03;8.20;99.90
21037;DHT22;10677;50.942;4.028;2023-04-30T04:36:30;8.10;99.90
21037;DHT22;10677;50.942;4.028;2023-04-30T04:39:00;8.10;99.90
21037;DHT22;10677;50.942;4.028;2023-04-30T04:41:32;8.20;99.90
21037;DHT22;10677;50.942;4.028;2023-04-30T04:43:59;8.30;99.90
21037;DHT22;10677;50.942;4.028;2023-04-30T04:46:26;8.30;99.90
21037;DHT22;10677;50.942;4.028;2023-04-30T04:48:52;8.30;99.90
21037;DHT22;10677;50.942;4.028;2023-04-30T04:51:18;8.30;99.90
21037;DHT22;10677;50.942;4.028;2023-04-30T04:53:44;8.20;99.90
21037;DHT22;10677;50.942;4.028;2023-04-30T04:56:10;8.10;99.90
21037;DHT22;10677;50.942;4.028;2023-04-30T04:58:36;8.00;99.90
21037;DHT22;10677;50.942;4.028;2023-04-30T05:01:02;8.00;99.90
21037;DHT22;10677;50.942;4.028;2023-04-30T05:03:30;8.10;99.90
21037;DHT22;10677;50.942;4.028;2023-04-30T05:05:56;8.10;99.90
21037;DHT22;10677;50.942;4.028;2023-04-30T05:08:22;8.20;99.90
21037;DHT22;10677;50.942;4.028;2023-04-30T05:10:48;8.20;99.90
21037;DHT22;10677;50.942;4.028;2023-04-30T05:13:14;8.30;99.90
21037;DHT22;10677;50.942;4.028;2023-04-30T05:15:39;8.30;99.90
21037;DHT22;10677;50.942;4.028;2023-04-30T05:18:05;8.30;99.90
21037;DHT22;10677;50.942;4.028;2023-04-30T05:20:30;8.40;99.90
21037;DHT22;10677;50.942;4.028;2023-04-30T05:22:56;8.40;99.90
21037;DHT22;10677;50.942;4.028;2023-04-30T05:25:22;8.50;99.90
21037;DHT22;10677;50.942;4.028;2023-04-30T05:27:47;8.60;99.90
21037;DHT22;10677;50.942;4.028;2023-04-30T05:30:13;8.70;99.90
21037;DHT22;10677;50.942;4.028;2023-04-30T05:32:40;8.70;99.90
21037;DHT22;10677;50.942;4.028;2023-04-30T05:35:06;8.90;99.90
21037;DHT22;10677;50.942;4.028;2023-04-30T05:37:32;8.90;99.90
21037;DHT22;10677;50.942;4.028;2023-04-30T05:39:58;9.10;99.90
21037;DHT22;10677;50.942;4.028;2023-04-30T05:42:23;9.20;99.90
21037;DHT22;10677;50.942;4.028;2023-04-30T05:44:49;9.30;99.90
21037;DHT22;10677;50.942;4.028;2023-04-30T05:47:15;9.40;99.90
21037;DHT22;10677;50.942;4.028;2023-04-30T05:49:40;9.40;99.90
21037;DHT22;10677;50.942;4.028;2023-04-30T05:52:06;9.50;99.90
21037;DHT22;10677;50.942;4.028;2023-04-30T05:54:32;9.60;99.90
21037;DHT22;10677;50.942;4.028;2023-04-30T05:56:57;9.50;99.90
21037;DHT22;10677;50.942;4.028;2023-04-30T05:59:23;9.60;99.90
21037;DHT22;10677;50.942;4.028;2023-04-30T06:01:48;9.70;99.90
21037;DHT22;10677;50.942;4.028;2023-04-30T06:04:14;9.70;99.90
21037;DHT22;10677;50.942;4.028;2023-04-30T06:06:40;9.90;99.90
21037;DHT22;10677;50.942;4.028;2023-04-30T06:09:06;10.20;99.90
21037;DHT22;10677;50.942;4.028;2023-04-30T06:11:33;10.30;99.90
21037;DHT22;10677;50.942;4.028;2023-04-30T06:13:59;10.40;99.90
21037;DHT22;10677;50.942;4.028;2023-04-30T06:16:24;10.40;99.90
21037;DHT22;10677;50.942;4.028;2023-04-30T06:18:50;10.50;99.90
21037;DHT22;10677;50.942;4.028;2023-04-30T06:21:15;10.50;99.90
21037;DHT22;10677;50.942;4.028;2023-04-30T06:23:41;10.50;99.90
21037;DHT22;10677;50.942;4.028;2023-04-30T06:26:07;10.60;99.90
21037;DHT22;10677;50.942;4.028;2023-04-30T06:28:32;10.70;99.90
21037;DHT22;10677;50.942;4.028;2023-04-30T06:30:58;10.70;99.90
21037;DHT22;10677;50.942;4.028;2023-04-30T06:33:24;10.70;99.90
21037;DHT22;10677;50.942;4.028;2023-04-30T06:35:49;10.80;99.90
21037;DHT22;10677;50.942;4.028;2023-04-30T06:38:18;10.80;99.90
21037;DHT22;10677;50.942;4.028;2023-04-30T06:40:44;10.80;99.90
21037;DHT22;10677;50.942;4.028;2023-04-30T06:43:10;10.70;99.90
21037;DHT22;10677;50.942;4.028;2023-04-30T06:45:36;10.90;99.90
21037;DHT22;10677;50.942;4.028;2023-04-30T06:48:02;11.10;99.90
21037;DHT22;10677;50.942;4.028;2023-04-30T06:50:28;11.10;99.90
21037;DHT22;10677;50.942;4.028;2023-04-30T06:52:53;11.20;99.90
21037;DHT22;10677;50.942;4.028;2023-04-30T06:55:19;11.30;99.90
21037;DHT22;10677;50.942;4.028;2023-04-30T06:57:45;11.40;99.90
21037;DHT22;10677;50.942;4.028;2023-04-30T07:00:11;11.50;99.90
21037;DHT22;10677;50.942;4.028;2023-04-30T07:02:36;11.50;99.90
21037;DHT22;10677;50.942;4.028;2023-04-30T07:05:03;11.50;99.90
21037;DHT22;10677;50.942;4.028;2023-04-30T07:07:28;11.40;99.90
21037;DHT22;10677;50.942;4.028;2023-04-30T07:09:54;11.40;99.90
21037;DHT22;10677;50.942;4.028;2023-04-30T07:12:20;11.50;99.90
21037;DHT22;10677;50.942;4.028;2023-04-30T07:14:46;11.50;99.90
21037;DHT22;10677;50.942;4.028;2023-04-30T07:17:12;11.70;99.90
21037;DHT22;10677;50.942;4.028;2023-04-30T07:19:37;11.70;99.90
21037;DHT22;10677;50.942;4.028;2023-04-30T07:22:03;11.70;99.90
21037;DHT22;10677;50.942;4.028;2023-04-30T07:24:29;11.80;99.90
21037;DHT22;10677;50.942;4.028;2023-04-30T07:26:55;11.90;99.90
21037;DHT22;10677;50.942;4.028;2023-04-30T07:29:21;11.90;99.90
21037;DHT22;10677;50.942;4.028;2023-04-30T07:31:46;11.90;99.90
21037;DHT22;10677;50.942;4.028;2023-04-30T07:34:12;12.00;99.90
21037;DHT22;10677;50.942;4.028;2023-04-30T07:36:38;12.10;99.90
21037;DHT22;10677;50.942;4.028;2023-04-30T07:39:04;12.30;99.90
21037;DHT22;10677;50.942;4.028;2023-04-30T07:41:30;12.50;99.90
21037;DHT22;10677;50.942;4.028;2023-04-30T07:43:56;12.40;99.90
21037;DHT22;10677;50.942;4.028;2023-04-30T07:46:22;12.50;99.90
21037;DHT22;10677;50.942;4.028;2023-04-30T07:48:48;12.50;99.90
21037;DHT22;10677;50.942;4.028;2023-04-30T07:51:14;12.60;99.90
21037;DHT22;10677;50.942;4.028;2023-04-30T07:53:40;12.70;99.90
21037;DHT22;10677;50.942;4.028;2023-04-30T07:56:05;12.80;99.90
21037;DHT22;10677;50.942;4.028;2023-04-30T07:58:32;13.00;99.90
21037;DHT22;10677;50.942;4.028;2023-04-30T08:00:58;13.30;99.90
21037;DHT22;10677;50.942;4.028;2023-04-30T08:03:24;13.40;99.90
21037;DHT22;10677;50.942;4.028;2023-04-30T08:05:50;13.40;99.90
21037;DHT22;10677;50.942;4.028;2023-04-30T08:08:16;13.50;99.90
21037;DHT22;10677;50.942;4.028;2023-04-30T08:10:41;13.60;99.90
21037;DHT22;10677;50.942;4.028;2023-04-30T08:13:07;13.60;99.90
21037;DHT22;10677;50.942;4.028;2023-04-30T08:15:33;13.70;99.90
21037;DHT22;10677;50.942;4.028;2023-04-30T08:17:59;13.60;99.90
21037;DHT22;10677;50.942;4.028;2023-04-30T08:20:24;13.60;99.90
21037;DHT22;10677;50.942;4.028;2023-04-30T08:22:50;13.40;99.90
21037;DHT22;10677;50.942;4.028;2023-04-30T08:25:16;13.30;99.90
21037;DHT22;10677;50.942;4.028;2023-04-30T08:27:42;13.50;99.90
21037;DHT22;10677;50.942;4.028;2023-04-30T08:30:08;13.50;99.90
21037;DHT22;10677;50.942;4.028;2023-04-30T08:32:34;13.70;99.90
21037;DHT22;10677;50.942;4.028;2023-04-30T08:35:04;14.00;99.90
21037;DHT22;10677;50.942;4.028;2023-04-30T08:37:30;14.00;99.90
21037;DHT22;10677;50.942;4.028;2023-04-30T08:39:56;14.00;99.90
21037;DHT22;10677;50.942;4.028;2023-04-30T08:42:25;14.10;99.90
21037;DHT22;10677;50.942;4.028;2023-04-30T08:44:53;14.20;99.90
21037;DHT22;10677;50.942;4.028;2023-04-30T08:47:20;14.20;99.90
21037;DHT22;10677;50.942;4.028;2023-04-30T08:49:46;14.30;99.90
21037;DHT22;10677;50.942;4.028;2023-04-30T08:52:12;14.20;99.90
21037;DHT22;10677;50.942;4.028;2023-04-30T08:54:38;14.30;99.90
21037;DHT22;10677;50.942;4.028;2023-04-30T08:57:04;14.30;99.90
21037;DHT22;10677;50.942;4.028;2023-04-30T08:59:30;14.50;99.90
21037;DHT22;10677;50.942;4.028;2023-04-30T09:01:56;14.40;99.90
21037;DHT22;10677;50.942;4.028;2023-04-30T09:04:21;14.40;99.90
21037;DHT22;10677;50.942;4.028;2023-04-30T09:06:47;14.70;99.90
21037;DHT22;10677;50.942;4.028;2023-04-30T09:09:14;14.80;99.90
21037;DHT22;10677;50.942;4.028;2023-04-30T09:11:40;15.00;99.90
21037;DHT22;10677;50.942;4.028;2023-04-30T09:14:07;15.00;99.90
21037;DHT22;10677;50.942;4.028;2023-04-30T09:16:50;14.90;99.90
21037;DHT22;10677;50.942;4.028;2023-04-30T09:19:29;15.00;99.90
21037;DHT22;10677;50.942;4.028;2023-04-30T09:21:55;15.00;99.90
21037;DHT22;10677;50.942;4.028;2023-04-30T09:24:22;15.00;99.90
21037;DHT22;10677;50.942;4.028;2023-04-30T09:26:48;15.00;99.90
21037;DHT22;10677;50.942;4.028;2023-04-30T09:29:15;15.20;99.90
21037;DHT22;10677;50.942;4.028;2023-04-30T09:31:44;15.30;99.90
21037;DHT22;10677;50.942;4.028;2023-04-30T09:34:11;15.30;99.90
21037;DHT22;10677;50.942;4.028;2023-04-30T09:36:53;15.50;99.90
21037;DHT22;10677;50.942;4.028;2023-04-30T09:39:19;15.70;99.90
21037;DHT22;10677;50.942;4.028;2023-04-30T09:41:45;15.60;99.90
21037;DHT22;10677;50.942;4.028;2023-04-30T09:44:34;15.50;99.90
21037;DHT22;10677;50.942;4.028;2023-04-30T09:47:01;15.50;99.90
21037;DHT22;10677;50.942;4.028;2023-04-30T09:49:27;15.60;99.90
21037;DHT22;10677;50.942;4.028;2023-04-30T09:52:02;15.60;99.90
21037;DHT22;10677;50.942;4.028;2023-04-30T09:54:30;15.70;99.90
21037;DHT22;10677;50.942;4.028;2023-04-30T09:56:58;15.70;99.90
21037;DHT22;10677;50.942;4.028;2023-04-30T09:59:34;15.90;99.90
21037;DHT22;10677;50.942;4.028;2023-04-30T10:02:07;16.10;99.90
21037;DHT22;10677;50.942;4.028;2023-04-30T10:04:38;16.10;99.90
21037;DHT22;10677;50.942;4.028;2023-04-30T10:07:11;16.30;99.90
21037;DHT22;10677;50.942;4.028;2023-04-30T10:09:40;16.60;99.90
21037;DHT22;10677;50.942;4.028;2023-04-30T10:12:13;16.80;99.90
21037;DHT22;10677;50.942;4.028;2023-04-30T10:14:44;17.00;99.90
21037;DHT22;10677;50.942;4.028;2023-04-30T10:17:13;16.90;99.90
21037;DHT22;10677;50.942;4.028;2023-04-30T10:19:42;17.00;99.90
21037;DHT22;10677;50.942;4.028;2023-04-30T10:22:10;17.10;99.90
21037;DHT22;10677;50.942;4.028;2023-04-30T10:24:37;17.10;99.90
21037;DHT22;10677;50.942;4.028;2023-04-30T10:27:02;17.20;99.90
21037;DHT22;10677;50.942;4.028;2023-04-30T10:29:29;17.40;99.90
21037;DHT22;10677;50.942;4.028;2023-04-30T10:31:54;17.60;99.90
21037;DHT22;10677;50.942;4.028;2023-04-30T10:37:35;17.60;99.90
21037;DHT22;10677;50.942;4.028;2023-04-30T10:40:02;17.40;99.90
21037;DHT22;10677;50.942;4.028;2023-04-30T10:42:29;17.20;99.90
21037;DHT22;10677;50.942;4.028;2023-04-30T10:44:55;17.20;99.90
21037;DHT22;10677;50.942;4.028;2023-04-30T10:47:27;17.30;99.90
21037;DHT22;10677;50.942;4.028;2023-04-30T10:50:04;17.40;99.90
21037;DHT22;10677;50.942;4.028;2023-04-30T10:52:30;17.40;99.90
21037;DHT22;10677;50.942;4.028;2023-04-30T10:54:55;17.40;99.90
21037;DHT22;10677;50.942;4.028;2023-04-30T10:57:21;17.70;99.90
21037;DHT22;10677;50.942;4.028;2023-04-30T10:59:51;17.60;99.90
21037;DHT22;10677;50.942;4.028;2023-04-30T11:02:17;17.60;99.90
21037;DHT22;10677;50.942;4.028;2023-04-30T11:05:13;17.40;99.90
21037;DHT22;10677;50.942;4.028;2023-04-30T11:07:59;17.50;99.90
21037;DHT22;10677;50.942;4.028;2023-04-30T11:10:27;17.70;99.90
21037;DHT22;10677;50.942;4.028;2023-04-30T11:12:54;17.90;99.90
21037;DHT22;10677;50.942;4.028;2023-04-30T11:15:23;18.10;99.90
21037;DHT22;10677;50.942;4.028;2023-04-30T11:17:49;17.80;99.90
21037;DHT22;10677;50.942;4.028;2023-04-30T11:20:19;17.90;99.90
21037;DHT22;10677;50.942;4.028;2023-04-30T11:22:45;18.20;99.90
21037;DHT22;10677;50.942;4.028;2023-04-30T11:25:11;18.40;99.90
21037;DHT22;10677;50.942;4.028;2023-04-30T11:27:41;18.60;99.90
21037;DHT22;10677;50.942;4.028;2023-04-30T11:30:12;18.70;99.90
21037;DHT22;10677;50.942;4.028;2023-04-30T11:32:40;19.00;99.90
21037;DHT22;10677;50.942;4.028;2023-04-30T11:35:06;19.40;99.90
21037;DHT22;10677;50.942;4.028;2023-04-30T11:40:01;19.60;99.90
21037;DHT22;10677;50.942;4.028;2023-04-30T11:42:27;19.30;99.90
21037;DHT22;10677;50.942;4.028;2023-04-30T11:45:02;19.00;99.90
21037;DHT22;10677;50.942;4.028;2023-04-30T11:47:55;18.80;99.90
21037;DHT22;10677;50.942;4.028;2023-04-30T11:50:25;19.00;99.90
21037;DHT22;10677;50.942;4.028;2023-04-30T11:52:55;19.20;99.90
21037;DHT22;10677;50.942;4.028;2023-04-30T11:55:25;19.20;99.90
21037;DHT22;10677;50.942;4.028;2023-04-30T11:57:55;19.20;99.90
21037;DHT22;10677;50.942;4.028;2023-04-30T12:00:29;19.30;99.90
21037;DHT22;10677;50.942;4.028;2023-04-30T12:02:57;19.10;99.90
21037;DHT22;10677;50.942;4.028;2023-04-30T12:05:25;19.10;99.90
21037;DHT22;10677;50.942;4.028;2023-04-30T12:07:55;19.30;99.90
21037;DHT22;10677;50.942;4.028;2023-04-30T12:10:22;19.30;99.90
21037;DHT22;10677;50.942;4.028;2023-04-30T12:12:48;19.50;99.90
21037;DHT22;10677;50.942;4.028;2023-04-30T12:15:20;19.80;99.90
21037;DHT22;10677;50.942;4.028;2023-04-30T12:17:52;20.00;99.90
21037;DHT22;10677;50.942;4.028;2023-04-30T12:20:19;19.90;99.90
21037;DHT22;10677;50.942;4.028;2023-04-30T12:22:47;19.90;99.90
21037;DHT22;10677;50.942;4.028;2023-04-30T12:25:20;19.80;99.90
21037;DHT22;10677;50.942;4.028;2023-04-30T12:27:58;19.90;99.90
21037;DHT22;10677;50.942;4.028;2023-04-30T12:30:25;19.80;99.90
21037;DHT22;10677;50.942;4.028;2023-04-30T12:32:55;20.10;99.90
21037;DHT22;10677;50.942;4.028;2023-04-30T12:35:22;20.30;99.90
21037;DHT22;10677;50.942;4.028;2023-04-30T12:37:52;20.40;99.90
21037;DHT22;10677;50.942;4.028;2023-04-30T12:40:19;20.50;99.90
21037;DHT22;10677;50.942;4.028;2023-04-30T12:42:46;20.60;99.90
21037;DHT22;10677;50.942;4.028;2023-04-30T12:45:12;20.40;99.90
21037;DHT22;10677;50.942;4.028;2023-04-30T12:47:43;20.50;99.90
21037;DHT22;10677;50.942;4.028;2023-04-30T12:50:10;20.60;99.90
21037;DHT22;10677;50.942;4.028;2023-04-30T12:52:39;20.90;99.90
21037;DHT22;10677;50.942;4.028;2023-04-30T12:55:18;21.00;99.90
21037;DHT22;10677;50.942;4.028;2023-04-30T12:58:10;20.90;99.90
21037;DHT22;10677;50.942;4.028;2023-04-30T13:01:02;20.60;99.90
21037;DHT22;10677;50.942;4.028;2023-04-30T13:03:27;20.60;99.90
21037;DHT22;10677;50.942;4.028;2023-04-30T13:05:53;20.40;99.90
21037;DHT22;10677;50.942;4.028;2023-04-30T13:08:19;20.50;99.90
21037;DHT22;10677;50.942;4.028;2023-04-30T13:10:46;20.90;99.90
21037;DHT22;10677;50.942;4.028;2023-04-30T13:13:14;21.30;99.90
21037;DHT22;10677;50.942;4.028;2023-04-30T13:15:41;21.60;99.90
21037;DHT22;10677;50.942;4.028;2023-04-30T13:18:07;21.80;99.90
21037;DHT22;10677;50.942;4.028;2023-04-30T13:20:36;22.10;99.90
21037;DHT22;10677;50.942;4.028;2023-04-30T13:23:03;22.20;99.90
21037;DHT22;10677;50.942;4.028;2023-04-30T13:25:29;22.30;99.90
21037;DHT22;10677;50.942;4.028;2023-04-30T13:27:55;22.10;99.90
21037;DHT22;10677;50.942;4.028;2023-04-30T13:30:22;22.30;99.90
21037;DHT22;10677;50.942;4.028;2023-04-30T13:32:48;22.20;99.90
21037;DHT22;10677;50.942;4.028;2023-04-30T13:35:13;22.80;99.90
21037;DHT22;10677;50.942;4.028;2023-04-30T13:37:39;22.70;99.90
21037;DHT22;10677;50.942;4.028;2023-04-30T13:40:08;22.90;99.90
21037;DHT22;10677;50.942;4.028;2023-04-30T13:42:38;23.50;99.90
21037;DHT22;10677;50.942;4.028;2023-04-30T13:45:07;24.70;99.90
21037;DHT22;10677;50.942;4.028;2023-04-30T13:47:34;24.60;99.90
21037;DHT22;10677;50.942;4.028;2023-04-30T13:50:00;24.30;99.90
21037;DHT22;10677;50.942;4.028;2023-04-30T13:52:26;23.70;99.90
21037;DHT22;10677;50.942;4.028;2023-04-30T13:54:52;23.60;99.90
21037;DHT22;10677;50.942;4.028;2023-04-30T13:57:17;23.20;99.90
21037;DHT22;10677;50.942;4.028;2023-04-30T13:59:43;22.70;99.90
21037;DHT22;10677;50.942;4.028;2023-04-30T14:02:09;22.80;99.90
21037;DHT22;10677;50.942;4.028;2023-04-30T14:04:36;24.80;99.90
21037;DHT22;10677;50.942;4.028;2023-04-30T14:07:03;25.80;99.90
21037;DHT22;10677;50.942;4.028;2023-04-30T14:09:28;26.30;99.90
21037;DHT22;10677;50.942;4.028;2023-04-30T14:11:55;27.20;99.90
21037;DHT22;10677;50.942;4.028;2023-04-30T14:14:26;27.50;99.90
21037;DHT22;10677;50.942;4.028;2023-04-30T14:16:52;29.30;99.90
21037;DHT22;10677;50.942;4.028;2023-04-30T14:19:18;29.30;99.90
21037;DHT22;10677;50.942;4.028;2023-04-30T14:21:44;29.20;99.90
21037;DHT22;10677;50.942;4.028;2023-04-30T14:24:11;29.80;99.90
21037;DHT22;10677;50.942;4.028;2023-04-30T14:26:41;31.70;96.30
21037;DHT22;10677;50.942;4.028;2023-04-30T14:29:07;33.20;92.60
21037;DHT22;10677;50.942;4.028;2023-04-30T14:31:33;32.70;90.90
21037;DHT22;10677;50.942;4.028;2023-04-30T14:33:58;32.20;89.80
21037;DHT22;10677;50.942;4.028;2023-04-30T14:36:25;31.90;88.80
21037;DHT22;10677;50.942;4.028;2023-04-30T14:38:52;30.80;88.40
21037;DHT22;10677;50.942;4.028;2023-04-30T14:41:18;29.30;90.10
21037;DHT22;10677;50.942;4.028;2023-04-30T14:43:44;29.60;90.40
21037;DHT22;10677;50.942;4.028;2023-04-30T14:46:09;28.80;90.90
21037;DHT22;10677;50.942;4.028;2023-04-30T14:48:36;28.30;91.50
21037;DHT22;10677;50.942;4.028;2023-04-30T14:51:02;27.90;91.80
21037;DHT22;10677;50.942;4.028;2023-04-30T14:53:28;26.90;92.90
21037;DHT22;10677;50.942;4.028;2023-04-30T14:55:53;27.60;93.50
21037;DHT22;10677;50.942;4.028;2023-04-30T14:58:19;28.70;92.40
21037;DHT22;10677;50.942;4.028;2023-04-30T15:00:45;29.40;91.50
21037;DHT22;10677;50.942;4.028;2023-04-30T15:03:13;28.40;91.60
21037;DHT22;10677;50.942;4.028;2023-04-30T15:05:40;27.80;91.90
21037;DHT22;10677;50.942;4.028;2023-04-30T15:08:05;27.70;92.40
21037;DHT22;10677;50.942;4.028;2023-04-30T15:10:31;26.90;92.60
21037;DHT22;10677;50.942;4.028;2023-04-30T15:12:57;26.50;92.80
21037;DHT22;10677;50.942;4.028;2023-04-30T15:15:22;26.10;93.00
21037;DHT22;10677;50.942;4.028;2023-04-30T15:17:53;25.40;93.40
21037;DHT22;10677;50.942;4.028;2023-04-30T15:20:19;24.90;93.30
21037;DHT22;10677;50.942;4.028;2023-04-30T15:22:45;25.00;93.60
21037;DHT22;10677;50.942;4.028;2023-04-30T15:25:11;25.30;93.80
21037;DHT22;10677;50.942;4.028;2023-04-30T15:27:37;25.80;93.00
21037;DHT22;10677;50.942;4.028;2023-04-30T15:30:04;25.30;93.00
21037;DHT22;10677;50.942;4.028;2023-04-30T15:32:30;25.20;93.60
21037;DHT22;10677;50.942;4.028;2023-04-30T15:34:56;25.60;93.70
21037;DHT22;10677;50.942;4.028;2023-04-30T15:37:21;26.90;93.70
21037;DHT22;10677;50.942;4.028;2023-04-30T15:39:47;28.50;92.50
21037;DHT22;10677;50.942;4.028;2023-04-30T15:42:13;28.40;91.60
21037;DHT22;10677;50.942;4.028;2023-04-30T15:44:38;28.30;91.70
21037;DHT22;10677;50.942;4.028;2023-04-30T15:47:04;28.20;91.50
21037;DHT22;10677;50.942;4.028;2023-04-30T15:49:30;28.10;91.60
21037;DHT22;10677;50.942;4.028;2023-04-30T15:51:55;28.30;91.20
21037;DHT22;10677;50.942;4.028;2023-04-30T15:54:21;28.00;91.10
21037;DHT22;10677;50.942;4.028;2023-04-30T15:56:47;27.60;91.30
21037;DHT22;10677;50.942;4.028;2023-04-30T15:59:13;26.50;91.60